.
WxDataArchive / Data Records for 2009-08-13
2009-08-12 August 2009 2009-08-14

Data Records for Thursday, 13 August 2009

Time	Temp	Chill	HIndex	Humid	Dewpt	 Wind 	HiWind	WindDir	Rain 	Barom 
-----	----	-----	------	-----	-----	------	------	-------	-----	----- 
00:00	65.0	65.0	65.0	85	60.4	0	0	---	0.00	30.087 
00:05	64.8	64.8	64.8	86	60.5	0	0	---	0.00	30.087 
00:10	64.7	64.7	64.7	86	60.4	0	0	---	0.00	30.087 
00:15	64.5	64.5	64.5	87	60.5	0	0	---	0.00	30.087 
00:20	64.3	64.3	64.3	87	60.3	0	0	---	0.00	30.087 
00:25	64.2	64.2	64.2	88	60.6	0	0	---	0.00	30.087 
00:30	64.0	64.0	64.0	88	60.4	0	0	---	0.00	30.088 
00:35	63.9	63.9	63.9	88	60.3	0	0	---	0.00	30.088 
00:40	63.7	63.7	63.7	88	60.1	0	0	---	0.00	30.088 
00:45	63.5	63.5	63.5	89	60.2	0	0	---	0.00	30.089 
00:50	63.4	63.4	63.4	89	60.1	0	0	---	0.00	30.089 
00:55	63.2	63.2	63.2	89	59.9	0	0	---	0.00	30.089 
01:00	63.1	63.1	63.1	89	59.8	0	0	---	0.00	30.085 
01:05	63.1	63.1	63.1	90	60.1	0	0	---	0.00	30.085 
01:10	62.9	62.9	62.9	90	59.9	0	0	---	0.00	30.085 
01:15	62.7	62.7	62.7	90	59.7	0	0	---	0.00	30.090 
01:20	62.6	62.6	62.6	90	59.6	0	0	---	0.00	30.090 
01:25	62.4	62.4	62.4	91	59.7	0	0	---	0.00	30.090 
01:30	62.4	62.4	62.4	91	59.7	0	0	---	0.00	30.084 
01:35	62.3	62.3	62.3	91	59.6	0	0	---	0.00	30.084 
01:40	62.1	62.1	62.1	91	59.4	0	0	---	0.00	30.084 
01:45	62.0	62.0	62.0	92	59.6	0	0	---	0.00	30.081 
01:50	61.8	61.8	61.8	92	59.4	0	0	---	0.00	30.081 
01:55	61.8	61.8	61.8	92	59.4	0	0	---	0.00	30.081 
02:00	61.6	61.6	61.6	92	59.2	0	0	---	0.00	30.079 
02:05	61.5	61.5	61.5	92	59.2	0	0	---	0.00	30.079 
02:10	61.3	61.3	61.3	92	59.0	0	0	---	0.00	30.079 
02:15	61.2	61.2	61.2	92	58.9	0	0	---	0.00	30.080 
02:20	61.2	61.2	61.2	92	58.9	0	0	---	0.00	30.080 
02:25	61.0	61.0	61.0	92	58.7	0	0	---	0.00	30.080 
02:30	61.0	61.0	61.0	92	58.7	0	0	---	0.00	30.080 
02:35	60.9	60.9	60.9	92	58.6	0	0	---	0.00	30.080 
02:40	60.9	60.9	60.9	93	58.9	0	0	---	0.00	30.080 
02:45	60.9	60.9	60.9	93	58.9	0	0	---	0.00	30.079 
02:50	60.7	60.7	60.7	93	58.7	0	0	---	0.00	30.079 
02:55	60.7	60.7	60.7	93	58.7	0	0	---	0.00	30.079 
03:00	60.5	60.5	60.5	93	58.5	0	0	---	0.00	30.080 
03:05	60.5	60.5	60.5	93	58.5	0	0	---	0.00	30.080 
03:10	60.5	60.5	60.5	93	58.5	0	0	---	0.00	30.080 
03:15	60.4	60.4	60.4	93	58.4	0	0	---	0.00	30.080 
03:20	60.2	60.2	60.2	93	58.2	0	0	---	0.00	30.080 
03:25	60.2	60.2	60.2	93	58.2	0	0	---	0.00	30.080 
03:30	60.2	60.2	60.2	94	58.5	0	0	---	0.00	30.085 
03:35	60.1	60.1	60.1	94	58.4	0	0	---	0.00	30.085 
03:40	60.1	60.1	60.1	94	58.4	0	0	---	0.00	30.085 
03:45	60.1	60.1	60.1	94	58.4	0	0	---	0.00	30.088 
03:50	60.1	60.1	60.1	94	58.4	0	0	---	0.00	30.088 
03:55	59.9	59.9	59.9	94	58.2	0	0	---	0.00	30.088 
04:00	59.9	59.9	59.9	94	58.2	0	0	---	0.00	30.088 
04:05	59.9	59.9	59.9	94	58.2	0	0	---	0.00	30.088 
04:10	59.9	59.9	59.9	94	58.2	0	0	---	0.00	30.088 
04:15	59.8	59.8	59.8	94	58.1	0	0	---	0.00	30.091 
04:20	59.8	59.8	59.8	94	58.1	0	0	---	0.00	30.091 
04:25	59.6	59.6	59.6	94	57.9	0	0	---	0.00	30.091 
04:30	59.6	59.6	59.6	94	57.9	0	0	---	0.00	30.096 
04:35	59.6	59.6	59.6	94	57.9	0	0	---	0.00	30.096 
04:40	59.5	59.5	59.5	94	57.8	0	0	---	0.00	30.096 
04:45	59.5	59.5	59.5	95	58.1	0	0	---	0.00	30.097 
04:50	59.5	59.5	59.5	95	58.1	0	0	---	0.00	30.097 
04:55	59.5	59.5	59.5	95	58.1	0	0	---	0.00	30.097 
05:00	59.5	59.5	59.5	95	58.1	0	0	---	0.00	30.098 
05:05	59.6	59.6	59.6	95	58.2	0	0	---	0.00	30.098 
05:10	59.8	59.8	59.8	95	58.4	0	0	---	0.00	30.098 
05:15	59.8	59.8	59.8	95	58.4	0	0	---	0.00	30.100 
05:20	59.8	59.8	59.8	95	58.4	0	0	---	0.00	30.100 
05:25	59.6	59.6	59.6	95	58.2	0	0	---	0.00	30.100 
05:30	59.5	59.5	59.5	95	58.1	0	0	---	0.00	30.102 
05:35	59.5	59.5	59.5	95	58.1	0	0	---	0.00	30.102 
05:40	59.5	59.5	59.5	95	58.1	0	0	---	0.00	30.102 
05:45	59.5	59.5	59.5	95	58.1	0	0	---	0.00	30.109 
05:50	59.5	59.5	59.5	95	58.1	0	0	---	0.00	30.109 
05:55	59.5	59.5	59.5	95	58.1	0	0	---	0.00	30.109 
06:00	59.3	59.3	59.3	95	57.9	0	0	---	0.00	30.113 
06:05	59.2	59.2	59.2	95	57.8	0	0	---	0.00	30.113 
06:10	59.0	59.0	59.0	95	57.6	0	0	---	0.00	30.113 
06:15	58.9	58.9	58.9	95	57.5	0	0	---	0.00	30.116 
06:20	58.9	58.9	58.9	95	57.5	0	0	---	0.00	30.116 
06:25	58.7	58.7	58.7	95	57.3	0	0	---	0.00	30.116 
06:30	58.7	58.7	58.7	95	57.3	0	0	---	0.00	30.122 
06:35	58.6	58.6	58.6	95	57.2	0	0	---	0.00	30.122 
06:40	58.6	58.6	58.6	95	57.2	0	0	---	0.00	30.122 
06:45	58.4	58.4	58.4	95	57.0	0	0	---	0.00	30.125 
06:50	58.4	58.4	58.4	95	57.0	0	0	---	0.00	30.125 
06:55	58.3	58.3	58.3	95	56.9	0	0	---	0.00	30.125 
07:00	58.3	58.3	58.3	95	56.9	0	0	---	0.00	30.130 
07:05	58.3	58.3	58.3	95	56.9	0	0	---	0.00	30.130 
07:10	58.3	58.3	58.3	95	56.9	0	0	---	0.00	30.130 
07:15	58.3	58.3	58.3	95	56.9	0	0	---	0.00	30.132 
07:20	58.4	58.4	58.4	96	57.3	0	0	---	0.00	30.132 
07:25	58.6	58.6	58.6	96	57.5	0	0	---	0.00	30.132 
07:30	58.7	58.7	58.7	96	57.6	0	0	---	0.00	30.139 
07:35	58.9	58.9	58.9	96	57.8	0	0	---	0.00	30.139 
07:40	59.0	59.0	59.0	96	57.9	0	0	---	0.00	30.139 
07:45	59.5	59.5	59.5	96	58.4	0	0	---	0.00	30.145 
07:50	59.8	59.8	59.8	96	58.7	0	0	---	0.00	30.145 
07:55	60.2	60.2	60.2	96	59.1	0	0	---	0.00	30.145 
08:00	60.9	60.9	60.9	96	59.7	0	0	---	0.00	30.147 
08:05	61.3	61.3	61.3	96	60.1	0	0	---	0.00	30.147 
08:10	61.8	61.8	61.8	96	60.6	0	0	---	0.00	30.147 
08:15	62.7	62.7	62.7	96	61.5	0	1	112	0.00	30.147 
08:20	63.5	63.5	63.5	96	62.3	0	1	---	0.00	30.147 
08:25	64.3	64.3	64.3	95	62.8	0	0	---	0.00	30.147 
08:30	65.2	65.2	65.2	93	63.1	0	2	112	0.00	30.150 
08:35	65.8	65.8	65.8	91	63.1	0	1	112	0.00	30.150 
08:40	66.3	66.3	66.3	89	63.0	0	1	112	0.00	30.150 
08:45	67.1	67.1	67.1	85	62.4	0	1	112	0.00	30.153 
08:50	67.9	67.9	67.9	84	62.9	0	0	---	0.00	30.153 
08:55	68.8	68.8	68.8	83	63.4	0	0	---	0.00	30.153 
09:00	69.1	69.1	69.1	77	61.6	1	2	112	0.00	30.153 
09:05	69.9	69.9	69.9	76	62.0	0	2	112	0.00	30.153 
09:10	70.6	70.6	70.6	74	61.9	0	1	112	0.00	30.153 
09:15	71.6	71.6	71.6	71	61.7	0	1	112	0.00	30.152 
09:20	72.5	72.5	72.5	71	62.5	0	2	112	0.00	30.152 
09:25	73.2	73.2	73.2	69	62.4	0	1	112	0.00	30.152 
09:30	73.9	73.9	73.9	67	62.2	0	3	112	0.00	30.142 
09:35	74.0	74.0	74.0	68	62.8	1	3	112	0.00	30.142 
09:40	74.2	74.2	74.2	69	63.4	0	1	112	0.00	30.142 
09:45	74.6	74.6	74.6	70	64.2	0	0	---	0.00	30.147 
09:50	75.1	75.1	77.1	66	62.9	0	1	112	0.00	30.147 
09:55	75.6	75.6	77.5	66	63.4	0	2	112	0.00	30.147 
10:00	76.0	76.0	77.9	65	63.4	0	1	112	0.00	30.148 
10:05	76.1	76.1	78.0	64	63.0	1	3	112	0.00	30.148 
10:10	76.3	76.3	78.1	65	63.6	0	2	112	0.00	30.148 
10:15	77.0	77.0	78.8	62	63.0	0	2	112	0.00	30.148 
10:20	77.4	77.4	79.2	63	63.8	1	3	112	0.00	30.148 
10:25	77.6	77.6	79.3	60	62.6	1	3	112	0.00	30.148 
10:30	77.4	77.4	79.2	62	63.3	1	3	112	0.00	30.147 
10:35	77.4	77.4	79.1	60	62.4	1	3	112	0.00	30.147 
10:40	77.4	77.4	79.2	62	63.3	1	3	112	0.00	30.147 
10:45	77.7	77.7	79.4	61	63.2	1	3	112	0.00	30.147 
10:50	78.3	78.3	80.0	61	63.7	0	3	112	0.00	30.147 
10:55	78.8	78.8	80.5	60	63.7	0	2	112	0.00	30.147 
11:00	79.4	79.4	81.0	59	63.8	1	2	112	0.00	30.143 
11:05	79.6	79.6	81.1	57	63.0	1	3	135	0.00	30.143 
11:10	79.4	79.4	80.8	56	62.3	1	3	68	0.00	30.143 
11:15	79.6	79.6	80.9	55	62.0	1	3	90	0.00	30.141 
11:20	80.1	80.1	81.5	56	63.0	0	1	90	0.00	30.141 
11:25	80.5	80.5	81.3	50	60.1	2	4	90	0.00	30.141 
11:30	80.1	80.1	81.1	52	60.9	1	4	112	0.00	30.142 
11:35	80.1	80.1	81.3	54	61.9	1	3	112	0.00	30.142 
11:40	80.3	80.3	81.5	54	62.1	1	4	68	0.00	30.142 
11:45	80.7	80.7	81.7	52	61.4	1	2	158	0.00	30.140 
11:50	81.2	81.2	82.2	52	61.9	0	4	112	0.00	30.140 
11:55	81.6	81.6	82.6	52	62.2	1	2	112	0.00	30.140 
12:00	82.0	82.0	82.5	48	60.3	1	3	112	0.00	30.142 
12:05	82.2	82.2	82.8	49	61.1	1	4	112	0.00	30.142 
12:10	82.2	82.2	82.4	46	59.3	1	3	112	0.00	30.142 
12:15	82.2	82.2	82.5	47	59.9	1	4	112	0.00	30.142 
12:20	82.4	82.4	82.7	47	60.1	1	3	90	0.00	30.142 
12:25	82.0	82.0	82.6	49	60.9	1	4	270	0.00	30.142 
12:30	82.2	82.2	82.7	48	60.5	1	4	90	0.00	30.141 
12:35	82.2	82.2	82.0	43	57.4	1	6	90	0.00	30.141 
12:40	82.4	82.4	82.3	44	58.3	1	3	112	0.00	30.141 
12:45	82.0	82.0	82.2	46	59.1	1	4	112	0.00	30.141 
12:50	82.0	82.0	82.1	45	58.5	2	5	90	0.00	30.141 
12:55	82.0	82.0	82.3	47	59.8	1	3	112	0.00	30.141 
13:00	82.2	82.2	82.3	45	58.7	1	5	90	0.00	30.139 
13:05	82.0	82.0	82.2	46	59.1	2	4	90	0.00	30.139 
13:10	81.6	81.6	81.8	46	58.8	1	3	90	0.00	30.139 
13:15	81.2	81.2	81.5	46	58.4	0	2	90	0.00	30.140 
13:20	81.6	81.6	81.9	47	59.4	1	5	112	0.00	30.140 
13:25	82.0	82.0	82.3	47	59.8	1	6	90	0.00	30.140 
13:30	82.6	82.6	82.7	45	59.1	1	3	292	0.00	30.138 
13:35	83.0	83.0	82.8	43	58.2	1	3	248	0.00	30.138 
13:40	82.8	82.8	82.7	44	58.6	2	5	90	0.00	30.138 
13:45	83.2	83.2	82.8	42	57.7	1	2	180	0.00	30.129 
13:50	83.6	83.6	83.4	43	58.7	1	3	158	0.00	30.129 
13:55	83.6	83.6	83.4	43	58.7	2	4	112	0.00	30.129 
14:00	83.0	83.0	82.3	40	56.2	2	5	90	0.00	30.129 
14:05	83.0	83.0	82.0	37	54.0	1	2	90	0.00	30.129 
14:10	83.2	83.2	82.7	41	57.0	1	3	90	0.00	30.129 
14:15	83.2	83.2	83.0	43	58.3	0	3	292	0.00	30.129 
14:20	83.4	83.4	82.9	41	57.2	2	5	90	0.00	30.129 
14:25	83.6	83.6	83.0	41	57.4	0	1	90	0.00	30.129 
14:30	83.8	83.8	83.7	44	59.5	2	4	90	0.00	30.128 
14:35	83.6	83.6	83.4	43	58.7	2	7	90	0.00	30.128 
14:40	83.8	83.8	83.1	40	56.9	1	2	90	0.00	30.128 
14:45	84.0	84.0	83.3	40	57.0	1	5	135	0.00	30.128 
14:50	84.0	84.0	83.8	43	59.1	1	4	90	0.00	30.128 
14:55	84.1	84.1	83.1	38	55.7	2	4	270	0.00	30.128 
15:00	84.1	84.1	83.6	41	57.8	1	3	90	0.00	30.128 
15:05	84.5	84.5	83.8	40	57.5	1	2	292	0.00	30.128 
15:10	84.9	84.9	84.0	39	57.1	1	3	0	0.00	30.128 
15:15	84.3	84.3	83.3	38	55.9	0	1	292	0.00	30.136 
15:20	84.0	84.0	83.3	40	57.0	0	2	292	0.00	30.136 
15:25	83.8	83.8	83.4	42	58.2	0	1	292	0.00	30.136 
15:30	83.8	83.8	82.5	36	54.0	0	2	292	0.00	30.133 
15:35	83.2	83.2	82.7	41	57.0	1	3	338	0.00	30.133 
15:40	83.2	83.2	82.5	40	56.3	0	1	22	0.00	30.133 
15:45	83.6	83.6	82.6	38	55.3	1	4	292	0.00	30.127 
15:50	84.5	84.5	83.3	37	55.3	0	2	158	0.00	30.127 
15:55	85.1	85.1	83.6	35	54.3	0	3	158	0.00	30.127 
16:00	85.5	85.5	84.2	36	55.5	1	3	112	0.00	30.124 
16:05	85.5	85.5	84.0	35	54.7	1	4	158	0.00	30.124 
16:10	84.9	84.9	83.4	35	54.2	1	2	90	0.00	30.124 
16:15	84.7	84.7	83.4	36	54.8	2	6	0	0.00	30.125 
16:20	84.1	84.1	82.8	36	54.2	3	5	68	0.00	30.125 
16:25	84.0	84.0	82.7	36	54.1	1	3	68	0.00	30.125 
16:30	84.3	84.3	83.0	36	54.4	1	4	68	0.00	30.122 
16:35	84.7	84.7	84.2	41	58.4	1	4	68	0.00	30.122 
16:40	85.1	85.1	83.6	35	54.3	0	2	68	0.00	30.122 
16:45	85.1	85.1	83.6	35	54.3	0	3	68	0.00	30.116 
16:50	85.3	85.3	83.6	34	53.7	1	4	68	0.00	30.116 
16:55	84.9	84.9	83.6	36	54.9	2	4	68	0.00	30.116 
17:00	84.3	84.3	82.9	35	53.6	1	4	68	0.00	30.113 
17:05	84.3	84.3	83.0	36	54.4	1	3	68	0.00	30.113 
17:10	84.5	84.5	83.0	35	53.8	1	3	68	0.00	30.113 
17:15	84.3	84.3	82.9	35	53.6	2	6	68	0.00	30.113 
17:20	84.3	84.3	83.0	36	54.4	1	3	90	0.00	30.113 
17:25	84.3	84.3	82.7	34	52.8	0	1	90	0.00	30.113 
17:30	84.3	84.3	82.9	35	53.6	0	1	90	0.00	30.112 
17:35	84.3	84.3	83.0	36	54.4	0	2	90	0.00	30.112 
17:40	84.5	84.5	83.6	39	56.8	0	3	90	0.00	30.112 
17:45	84.7	84.7	83.2	35	54.0	0	2	292	0.00	30.110 
17:50	84.7	84.7	83.2	35	54.0	0	2	292	0.00	30.110 
17:55	84.9	84.9	83.4	35	54.2	1	3	112	0.00	30.110 
18:00	84.9	84.9	83.7	37	55.7	0	2	112	0.00	30.110 
18:05	84.9	84.9	83.6	36	54.9	1	4	112	0.00	30.110 
18:10	84.9	84.9	83.6	36	54.9	1	4	135	0.00	30.110 
18:15	84.7	84.7	83.1	34	53.2	0	1	135	0.00	30.108 
18:20	84.5	84.5	82.9	34	53.0	0	1	135	0.00	30.108 
18:25	84.0	84.0	82.5	34	52.6	0	2	180	0.00	30.108 
18:30	83.8	83.8	82.5	36	54.0	0	1	180	0.00	30.106 
18:35	83.4	83.4	82.3	37	54.4	0	1	180	0.00	30.106 
18:40	83.2	83.2	82.1	37	54.2	0	1	180	0.00	30.106 
18:45	83.0	83.0	82.1	38	54.7	0	2	180	0.00	30.105 
18:50	82.8	82.8	81.8	37	53.8	0	1	180	0.00	30.105 
18:55	82.6	82.6	81.6	37	53.7	0	1	180	0.00	30.105 
19:00	82.4	82.4	81.6	38	54.2	1	3	180	0.00	30.101 
19:05	82.4	82.4	81.6	38	54.2	0	1	180	0.00	30.101 
19:10	82.2	82.2	81.5	39	54.7	0	1	180	0.00	30.101 
19:15	82.0	82.0	81.2	38	53.9	0	2	180	0.00	30.097 
19:20	82.0	82.0	81.3	39	54.6	0	2	68	0.00	30.097 
19:25	81.8	81.8	81.1	38	53.7	0	2	68	0.00	30.097 
19:30	81.6	81.6	81.0	39	54.2	0	1	68	0.00	30.103 
19:35	81.4	81.4	80.9	39	54.0	0	1	68	0.00	30.103 
19:40	81.2	81.2	80.7	39	53.9	0	1	68	0.00	30.103 
19:45	81.1	81.1	80.7	40	54.5	0	1	68	0.00	30.098 
19:50	80.9	80.9	80.8	42	55.6	0	1	68	0.00	30.098 
19:55	80.7	80.7	80.8	44	56.7	0	1	68	0.00	30.098 
20:00	80.5	80.5	80.8	46	57.8	0	1	68	0.00	30.101 
20:05	80.3	80.3	80.9	48	58.8	0	1	68	0.00	30.101 
20:10	79.9	79.9	80.7	50	59.6	0	0	---	0.00	30.101 
20:15	79.6	79.6	80.5	50	59.3	0	0	---	0.00	30.095 
20:20	79.4	79.4	80.4	51	59.7	0	1	68	0.00	30.095 
20:25	79.0	79.0	80.1	52	59.8	0	0	---	0.00	30.095 
20:30	78.6	78.6	79.8	53	60.0	0	0	---	0.00	30.100 
20:35	78.1	78.1	79.5	54	60.1	0	0	---	0.00	30.100 
20:40	77.6	77.6	79.2	55	60.1	0	0	---	0.00	30.100 
20:45	76.8	76.8	78.6	57	60.4	0	0	---	0.00	30.107 
20:50	76.3	76.3	78.2	58	60.4	0	0	---	0.00	30.107 
20:55	75.8	75.8	77.9	59	60.4	0	0	---	0.00	30.107 
21:00	75.4	75.4	77.6	60	60.5	0	0	---	0.00	30.110 
21:05	74.9	74.9	74.9	61	60.5	0	0	---	0.00	30.110 
21:10	74.6	74.6	74.6	61	60.2	0	0	---	0.00	30.110 
21:15	74.0	74.0	74.0	63	60.6	0	0	---	0.00	30.109 
21:20	73.7	73.7	73.7	64	60.7	0	0	---	0.00	30.109 
21:25	73.3	73.3	73.3	65	60.8	0	0	---	0.00	30.109 
21:30	73.0	73.0	73.0	66	61.0	0	0	---	0.00	30.118 
21:35	72.7	72.7	72.7	66	60.7	0	0	---	0.00	30.118 
21:40	72.3	72.3	72.3	67	60.7	0	0	---	0.00	30.118 
21:45	72.0	72.0	72.0	68	60.8	0	0	---	0.00	30.122 
21:50	71.6	71.6	71.6	69	60.9	0	0	---	0.00	30.122 
21:55	71.3	71.3	71.3	70	61.0	0	0	---	0.00	30.122 
22:00	70.9	70.9	70.9	70	60.6	0	0	---	0.00	30.128 
22:05	70.8	70.8	70.8	71	60.9	0	0	---	0.00	30.128 
22:10	70.4	70.4	70.4	72	60.9	0	0	---	0.00	30.128 
22:15	70.1	70.1	70.1	73	61.0	0	0	---	0.00	30.129 
22:20	69.9	69.9	69.9	74	61.2	0	0	---	0.00	30.129 
22:25	69.6	69.6	69.6	74	60.9	0	0	---	0.00	30.129 
22:30	69.4	69.4	69.4	75	61.1	0	0	---	0.00	30.126 
22:35	69.3	69.3	69.3	76	61.4	0	0	---	0.00	30.126 
22:40	69.1	69.1	69.1	76	61.2	0	0	---	0.00	30.126 
22:45	68.9	68.9	68.9	76	61.0	0	0	---	0.00	30.126 
22:50	68.9	68.9	68.9	76	61.0	0	0	---	0.00	30.126 
22:55	68.8	68.8	68.8	77	61.3	0	0	---	0.00	30.126 
23:00	68.4	68.4	68.4	77	60.9	0	0	---	0.00	30.123 
23:05	68.3	68.3	68.3	77	60.8	0	0	---	0.00	30.123 
23:10	68.1	68.1	68.1	77	60.6	0	0	---	0.00	30.123 
23:15	67.9	67.9	67.9	77	60.4	0	0	---	0.00	30.119 
23:20	67.9	67.9	67.9	77	60.4	0	0	---	0.00	30.119 
23:25	67.8	67.8	67.8	77	60.3	0	0	---	0.00	30.119 
23:30	67.6	67.6	67.6	78	60.5	0	0	---	0.00	30.119 
23:35	67.3	67.3	67.3	78	60.2	0	0	---	0.00	30.119 
23:40	67.1	67.1	67.1	78	60.0	0	0	---	0.00	30.119 
23:45	66.9	66.9	66.9	79	60.2	0	0	---	0.00	30.120 
23:50	66.8	66.8	66.8	80	60.4	0	0	---	0.00	30.120 
23:55	66.6	66.6	66.6	80	60.2	0	0	---	0.00	30.120 

CoCoRaHS
IN-AL-39
A2 Web Hosting
Creative Commons License
GoDaddy
search engine by freefind advanced

loaded 2018-11-17 12:44:29 • last modified 2010-11-18 10:43:29
Privacy PolicyDisclaimer
• wx.awcolley.com is powered by PmWiki v.2002016 •
• all content (unless otherwise noted) © 2018 A W Colley